createdAt,value
2022-08-19T00:01:53.885Z,23.38
2022-08-19T00:04:28.022Z,27.15
2022-08-19T00:06:55.694Z,30.77
2022-08-19T00:09:24.575Z,28.48
2022-08-19T00:11:52.587Z,27.65
2022-08-19T00:14:21.576Z,25.90
2022-08-19T00:16:49.644Z,27.95
2022-08-19T00:19:17.376Z,26.58
2022-08-19T00:21:44.788Z,33.50
2022-08-19T00:24:13.648Z,25.38
2022-08-19T00:26:42.314Z,25.88
2022-08-19T00:29:11.352Z,27.38
2022-08-19T00:31:38.864Z,25.00
2022-08-19T00:34:05.649Z,25.48
2022-08-19T00:36:33.647Z,26.77
2022-08-19T00:39:01.300Z,29.20
2022-08-19T00:41:28.996Z,27.83
2022-08-19T00:43:59.549Z,30.35
2022-08-19T00:46:27.101Z,28.42
2022-08-19T00:48:55.149Z,27.25
2022-08-19T00:51:23.053Z,30.88
2022-08-19T00:53:50.573Z,30.25
2022-08-19T00:56:18.030Z,36.17
2022-08-19T00:58:45.556Z,35.83
2022-08-19T01:01:12.245Z,31.42
2022-08-19T01:03:56.893Z,37.45
2022-08-19T01:06:27.213Z,35.65
2022-08-19T01:08:56.329Z,35.55
2022-08-19T01:11:23.172Z,36.38
2022-08-19T01:13:53.081Z,37.70
2022-08-19T01:16:22.326Z,34.97
2022-08-19T01:18:50.346Z,36.63
2022-08-19T01:21:57.599Z,42.63
2022-08-19T01:24:24.715Z,35.42
2022-08-19T01:26:52.763Z,34.40
2022-08-19T01:29:20.406Z,30.52
2022-08-19T01:31:50.055Z,29.38
2022-08-19T01:34:17.108Z,29.73
2022-08-19T01:36:48.039Z,32.95
2022-08-19T01:39:18.519Z,27.80
2022-08-19T01:41:46.528Z,27.90
2022-08-19T01:44:18.682Z,27.63
2022-08-19T01:49:17.684Z,30.40
2022-08-19T01:51:44.368Z,29.55
2022-08-19T01:54:13.915Z,35.05
2022-08-19T01:57:00.210Z,30.45
2022-08-19T01:59:28.138Z,31.35
2022-08-19T02:01:54.816Z,32.30
2022-08-19T02:04:21.877Z,36.33
2022-08-19T02:06:49.032Z,39.78
2022-08-19T02:09:17.187Z,36.78
2022-08-19T02:11:43.904Z,33.55
2022-08-19T02:14:10.921Z,38.08
2022-08-19T02:16:38.190Z,36.20
2022-08-19T02:19:05.880Z,43.03
2022-08-19T02:21:33.519Z,36.92
2022-08-19T02:24:01.514Z,38.72
2022-08-19T02:26:28.800Z,40.13
2022-08-19T02:28:57.461Z,43.08
2022-08-19T02:31:26.362Z,43.03
2022-08-19T02:33:56.732Z,42.13
2022-08-19T02:36:24.965Z,44.65
2022-08-19T02:38:55.108Z,50.88
2022-08-19T02:41:28.089Z,49.17
2022-08-19T02:46:45.601Z,59.58
2022-08-19T02:49:13.011Z,56.45
2022-08-19T02:51:44.356Z,62.72
2022-08-19T02:54:13.676Z,69.55
2022-08-19T02:56:43.061Z,71.13
2022-08-19T02:59:13.165Z,74.97
2022-08-19T03:01:42.048Z,73.53
2022-08-19T03:04:11.370Z,72.25
2022-08-19T03:06:40.324Z,78.68
2022-08-19T03:09:07.876Z,68.65
2022-08-19T03:11:35.105Z,72.90
2022-08-19T03:14:03.929Z,73.18
2022-08-19T03:16:33.372Z,72.93
2022-08-19T03:19:02.250Z,70.65
2022-08-19T03:21:31.806Z,75.38
2022-08-19T03:24:01.018Z,74.95
2022-08-19T03:26:28.129Z,83.95
2022-08-19T03:28:58.349Z,89.15
2022-08-19T03:31:44.013Z,83.25
2022-08-19T03:34:18.905Z,90.55
2022-08-19T03:36:46.927Z,90.45
2022-08-19T03:39:14.670Z,80.00
2022-08-19T03:41:46.073Z,79.90
2022-08-19T03:44:18.500Z,84.13
2022-08-19T03:46:47.830Z,96.78
2022-08-19T03:49:15.459Z,86.05
2022-08-19T03:51:43.637Z,92.05
2022-08-19T03:54:14.004Z,90.40
2022-08-19T03:56:42.291Z,84.07
2022-08-19T03:59:14.661Z,89.07
2022-08-19T04:01:41.887Z,85.37
2022-08-19T04:04:09.496Z,83.05
2022-08-19T04:06:39.630Z,99.35
2022-08-19T04:09:10.319Z,91.13
2022-08-19T04:11:50.790Z,93.00
2022-08-19T04:14:20.163Z,82.15
2022-08-19T04:16:48.766Z,80.57
2022-08-19T04:19:17.634Z,86.53
2022-08-19T04:21:50.838Z,85.60
2022-08-19T04:24:18.556Z,93.45
2022-08-19T04:26:46.245Z,95.90
2022-08-19T04:29:19.739Z,96.88
2022-08-19T04:31:47.372Z,102.85
2022-08-19T04:34:17.459Z,96.80
2022-08-19T04:36:45.713Z,95.38
2022-08-19T04:39:23.984Z,101.03
2022-08-19T04:42:09.844Z,104.93
2022-08-19T04:44:39.899Z,108.90
2022-08-19T04:47:13.506Z,106.75
2022-08-19T04:49:40.199Z,104.22
2022-08-19T04:52:07.240Z,106.85
2022-08-19T04:54:38.574Z,102.45
2022-08-19T04:57:09.370Z,112.70
2022-08-19T04:59:37.801Z,114.57
2022-08-19T05:02:05.726Z,112.80
2022-08-19T05:04:33.906Z,115.22
2022-08-19T05:07:02.137Z,112.82
2022-08-19T05:09:33.081Z,110.57
2022-08-19T05:12:18.613Z,106.97
2022-08-19T05:14:48.181Z,107.60
2022-08-19T05:17:34.933Z,111.40
2022-08-19T05:20:22.367Z,110.75
2022-08-19T05:22:49.215Z,108.50
2022-08-19T05:25:20.841Z,118.18
2022-08-19T05:27:48.440Z,110.38
2022-08-19T05:30:16.683Z,101.55
2022-08-19T05:32:43.705Z,86.35
2022-08-19T05:35:12.957Z,74.32
2022-08-19T05:37:41.176Z,75.10
2022-08-19T05:40:10.551Z,74.85
2022-08-19T05:42:37.868Z,66.50
2022-08-19T05:45:05.721Z,59.75
2022-08-19T05:47:33.070Z,53.22
2022-08-19T05:50:00.723Z,47.58
2022-08-19T05:52:28.971Z,48.42
2022-08-19T05:54:57.816Z,43.92
2022-08-19T05:57:25.304Z,45.53
2022-08-19T05:59:58.223Z,45.65
2022-08-19T06:02:26.562Z,44.47
2022-08-19T06:04:54.001Z,44.08
2022-08-19T06:07:20.845Z,43.83
2022-08-19T06:09:58.908Z,47.90
2022-08-19T06:12:32.220Z,44.55
2022-08-19T06:15:01.704Z,43.95
2022-08-19T06:17:30.905Z,45.03
2022-08-19T06:19:58.374Z,44.60
2022-08-19T06:22:25.293Z,41.72
2022-08-19T06:24:54.794Z,39.33
2022-08-19T06:27:22.281Z,43.85
2022-08-19T06:29:49.970Z,39.17
2022-08-19T06:32:18.529Z,42.42
2022-08-19T06:34:45.878Z,47.50
2022-08-19T06:37:13.275Z,43.22
2022-08-19T06:39:42.763Z,48.42
2022-08-19T06:42:12.543Z,52.03
2022-08-19T06:44:43.669Z,58.50
2022-08-19T06:47:23.552Z,60.95
2022-08-19T06:50:03.108Z,58.38
2022-08-19T06:52:31.885Z,71.15
2022-08-19T06:55:05.876Z,69.00
2022-08-19T06:57:34.503Z,73.50
2022-08-19T07:00:01.657Z,68.85
2022-08-19T07:02:28.408Z,71.10
2022-08-19T07:04:55.376Z,70.18
2022-08-19T07:07:24.323Z,74.80
2022-08-19T07:10:00.060Z,75.63
2022-08-19T07:12:33.761Z,73.43
2022-08-19T07:15:07.212Z,73.25
2022-08-19T07:17:35.491Z,74.72
2022-08-19T07:20:06.720Z,81.03
2022-08-19T07:22:40.499Z,81.85
2022-08-19T07:25:10.396Z,86.35
2022-08-19T07:27:37.956Z,87.25
2022-08-19T07:30:08.343Z,83.82
2022-08-19T07:32:40.099Z,89.32
2022-08-19T07:35:08.208Z,85.65
2022-08-19T07:37:37.935Z,83.20
2022-08-19T07:40:07.425Z,84.03
2022-08-19T07:42:34.205Z,91.95
2022-08-19T07:45:01.156Z,90.75
2022-08-19T07:47:47.748Z,88.93
2022-08-19T07:50:16.569Z,82.88
2022-08-19T07:52:45.068Z,89.00
2022-08-19T07:55:41.655Z,84.68
2022-08-19T07:58:05.695Z,74.28
2022-08-19T08:00:33.403Z,72.40
2022-08-19T08:03:00.095Z,74.20
2022-08-19T08:05:45.909Z,70.10
2022-08-19T08:08:32.114Z,67.72
2022-08-19T08:11:00.955Z,73.50
2022-08-19T08:13:28.931Z,71.00
2022-08-19T08:15:57.285Z,73.78
2022-08-19T08:18:27.784Z,75.30
2022-08-19T08:20:56.762Z,64.80
2022-08-19T08:23:25.716Z,62.92
2022-08-19T08:25:55.961Z,57.63
2022-08-19T08:28:23.983Z,62.10
2022-08-19T08:30:52.848Z,49.78
2022-08-19T08:33:33.945Z,51.53
2022-08-19T08:36:05.848Z,52.90
2022-08-19T08:38:39.092Z,43.13
2022-08-19T08:41:20.795Z,46.08
2022-08-19T08:43:51.959Z,44.55
2022-08-19T08:46:30.523Z,43.55
2022-08-19T08:49:08.309Z,39.00
2022-08-19T08:51:44.975Z,39.47
2022-08-19T08:54:18.645Z,39.42
2022-08-19T08:56:47.235Z,36.63
2022-08-19T08:59:29.357Z,40.13
2022-08-19T09:01:56.720Z,41.35
2022-08-19T09:04:23.941Z,37.10
2022-08-19T09:07:18.431Z,39.33
2022-08-19T09:10:25.804Z,32.85
2022-08-19T09:13:09.403Z,30.92
2022-08-19T09:15:42.898Z,36.88
2022-08-19T09:18:15.399Z,35.63
2022-08-19T09:20:48.307Z,32.28
2022-08-19T09:23:15.588Z,28.88
2022-08-19T09:25:42.721Z,25.67
2022-08-19T09:28:15.233Z,29.60
2022-08-19T09:30:54.274Z,25.33
2022-08-19T09:33:21.262Z,28.05
2022-08-19T09:35:53.432Z,27.55
2022-08-19T09:38:22.129Z,36.95
2022-08-19T09:40:50.342Z,26.67
2022-08-19T09:43:33.451Z,30.92
2022-08-19T09:46:08.532Z,22.17
2022-08-19T09:48:38.651Z,21.13
2022-08-19T09:51:08.843Z,24.88
2022-08-19T09:53:39.757Z,23.70
2022-08-19T09:56:07.381Z,22.30
2022-08-19T09:58:37.006Z,20.35
2022-08-19T10:01:05.591Z,20.73
2022-08-19T10:03:33.649Z,21.75
2022-08-19T10:06:03.039Z,20.98
2022-08-19T10:08:34.390Z,22.58
2022-08-19T10:11:28.600Z,22.40
2022-08-19T10:13:50.437Z,22.33
2022-08-19T10:16:22.335Z,23.83
2022-08-19T10:18:58.756Z,22.20
2022-08-19T10:21:32.368Z,23.27
2022-08-19T10:24:04.550Z,27.02
2022-08-19T10:26:35.437Z,19.10
2022-08-19T10:29:05.658Z,26.63
2022-08-19T10:32:00.994Z,30.20
2022-08-19T10:34:27.394Z,23.55
2022-08-19T10:37:00.437Z,26.98
2022-08-19T10:39:30.740Z,21.15
2022-08-19T10:41:58.372Z,19.05
2022-08-19T10:44:31.995Z,18.05
2022-08-19T10:47:00.466Z,22.75
2022-08-19T10:49:28.309Z,17.45
2022-08-19T10:52:18.990Z,18.80
2022-08-19T10:55:08.618Z,18.25
2022-08-19T10:57:59.333Z,16.55
2022-08-19T11:00:24.557Z,19.80
2022-08-19T11:02:52.221Z,15.25
2022-08-19T11:05:20.067Z,16.10
2022-08-19T11:07:47.086Z,16.17
2022-08-19T11:10:19.555Z,13.35
2022-08-19T11:12:49.046Z,14.57
2022-08-19T11:15:16.840Z,12.75
2022-08-19T11:17:44.668Z,21.85
2022-08-19T11:20:13.899Z,15.57
2022-08-19T11:22:42.258Z,18.02
2022-08-19T11:25:11.936Z,17.33
2022-08-19T11:27:47.021Z,19.67
2022-08-19T11:30:16.015Z,15.63
2022-08-19T11:32:47.251Z,19.67
2022-08-19T11:35:17.446Z,13.02
2022-08-19T11:37:44.595Z,15.82
2022-08-19T11:40:11.995Z,13.30
2022-08-19T11:42:57.542Z,15.50
2022-08-19T11:45:26.564Z,13.55
2022-08-19T11:47:54.009Z,10.50
2022-08-19T11:50:21.852Z,10.43
2022-08-19T11:52:50.519Z,14.80
2022-08-19T11:55:17.535Z,8.98
2022-08-19T11:57:44.541Z,11.23
2022-08-19T12:00:13.663Z,11.50
2022-08-19T12:02:40.947Z,8.93
2022-08-19T12:05:12.268Z,9.65
2022-08-19T12:07:42.271Z,11.05
2022-08-19T12:10:10.683Z,6.78
2022-08-19T12:12:43.475Z,6.38
2022-08-19T12:15:11.771Z,7.68
2022-08-19T12:17:39.237Z,11.15
2022-08-19T12:20:07.687Z,12.02
2022-08-19T12:22:35.841Z,12.40
2022-08-19T12:25:03.413Z,10.57
2022-08-19T12:27:40.475Z,8.77
2022-08-19T12:30:11.924Z,11.25
2022-08-19T12:32:39.867Z,7.93
2022-08-19T12:35:10.217Z,8.57
2022-08-19T12:37:37.060Z,10.63
2022-08-19T12:40:05.265Z,13.00
2022-08-19T12:42:32.073Z,10.50
2022-08-19T12:44:59.346Z,12.13
2022-08-19T12:47:27.358Z,9.60
2022-08-19T12:49:55.993Z,10.70
2022-08-19T12:52:25.067Z,10.63
2022-08-19T12:54:55.118Z,11.10
2022-08-19T12:57:32.631Z,14.85
2022-08-19T13:00:16.569Z,16.92
2022-08-19T13:02:46.581Z,13.68
2022-08-19T13:05:16.794Z,12.02
2022-08-19T13:07:46.959Z,6.35
2022-08-19T13:10:17.515Z,9.75
2022-08-19T13:12:47.936Z,7.82
2022-08-19T13:15:17.608Z,12.68
2022-08-19T13:17:47.807Z,10.52
2022-08-19T13:20:14.594Z,9.30
2022-08-19T13:22:41.676Z,10.48
2022-08-19T13:25:09.644Z,8.50
2022-08-19T13:27:37.873Z,11.43
2022-08-19T13:30:25.746Z,12.35
2022-08-19T13:33:11.857Z,10.63
2022-08-19T13:35:51.614Z,9.68
2022-08-19T13:38:21.544Z,12.90
2022-08-19T13:40:51.251Z,20.13
2022-08-19T13:43:22.821Z,9.70
2022-08-19T13:45:54.620Z,9.88
2022-08-19T13:48:21.792Z,13.50
2022-08-19T13:50:49.234Z,8.60
2022-08-19T13:53:17.632Z,7.88
2022-08-19T13:55:45.065Z,9.35
2022-08-19T13:58:13.149Z,10.75
2022-08-19T14:00:43.540Z,9.18
2022-08-19T14:03:11.266Z,9.85
2022-08-19T14:05:38.617Z,6.95
2022-08-19T14:08:05.874Z,7.40
2022-08-19T14:10:33.598Z,9.90
2022-08-19T14:13:02.129Z,5.18
2022-08-19T14:15:30.058Z,13.80
2022-08-19T14:17:57.078Z,7.93
2022-08-19T14:20:26.173Z,7.60
2022-08-19T14:22:54.781Z,9.70
2022-08-19T14:25:26.455Z,9.25
2022-08-19T14:27:53.733Z,7.60
2022-08-19T14:30:27.642Z,13.00
2022-08-19T14:32:55.764Z,8.85
2022-08-19T14:35:23.616Z,11.40
2022-08-19T14:37:51.091Z,14.82
2022-08-19T14:40:26.033Z,14.20
2022-08-19T14:42:56.614Z,16.80
2022-08-19T14:45:23.762Z,10.10
2022-08-19T14:47:50.481Z,9.75
2022-08-19T14:50:18.714Z,7.97
2022-08-19T14:52:49.392Z,9.90
2022-08-19T14:55:18.454Z,10.25
2022-08-19T14:57:46.062Z,8.30
2022-08-19T15:00:14.496Z,8.98
2022-08-19T15:02:47.163Z,9.82
2022-08-19T15:05:14.490Z,7.25
2022-08-19T15:07:41.811Z,8.55
2022-08-19T15:10:10.421Z,7.97
2022-08-19T15:12:43.190Z,7.72
2022-08-19T15:15:13.907Z,9.10
2022-08-19T15:17:46.166Z,11.57
2022-08-19T15:20:16.637Z,8.10
2022-08-19T15:22:43.308Z,9.55
2022-08-19T15:25:14.529Z,12.25
2022-08-19T15:27:42.062Z,11.15
2022-08-19T15:30:10.904Z,8.73
2022-08-19T15:32:38.802Z,7.40
2022-08-19T15:35:07.835Z,8.32
2022-08-19T15:37:37.227Z,11.18
2022-08-19T15:40:05.905Z,6.65
2022-08-19T15:42:33.864Z,10.85
2022-08-19T15:45:01.967Z,7.15
2022-08-19T15:47:35.090Z,8.38
2022-08-19T15:50:06.361Z,7.07
2022-08-19T15:52:48.437Z,7.05
2022-08-19T15:55:32.273Z,6.75
2022-08-19T15:58:29.183Z,8.70
2022-08-19T16:01:18.813Z,5.28
2022-08-19T16:04:13.725Z,11.10
2022-08-19T16:06:46.982Z,8.98
2022-08-19T16:11:45.559Z,7.63
2022-08-19T16:14:18.395Z,5.07
2022-08-19T16:16:47.595Z,5.40
2022-08-19T16:19:17.523Z,7.00
2022-08-19T16:21:48.183Z,5.72
2022-08-19T16:24:17.465Z,5.82
2022-08-19T16:26:45.632Z,5.85
2022-08-19T16:29:13.516Z,7.32
2022-08-19T16:31:43.734Z,6.90
2022-08-19T16:34:11.616Z,7.15
2022-08-19T16:36:42.231Z,5.22
2022-08-19T16:39:11.532Z,5.85
2022-08-19T16:41:39.680Z,9.27
2022-08-19T16:44:08.092Z,5.05
2022-08-19T16:46:37.062Z,7.20
2022-08-19T16:49:05.384Z,8.05
2022-08-19T16:51:34.016Z,7.10
2022-08-19T16:54:01.631Z,7.05
2022-08-19T16:56:29.170Z,9.07
2022-08-19T16:58:56.219Z,4.13
2022-08-19T17:01:22.882Z,4.55
2022-08-19T17:03:51.916Z,9.27
2022-08-19T17:06:30.746Z,13.05
2022-08-19T17:09:01.373Z,13.20
2022-08-19T17:11:31.058Z,7.47
2022-08-19T17:13:58.924Z,15.27
2022-08-19T17:16:28.686Z,8.95
2022-08-19T17:18:57.677Z,11.93
2022-08-19T17:21:28.122Z,8.52
2022-08-19T17:23:56.599Z,5.53
2022-08-19T17:26:25.160Z,12.13
2022-08-19T17:28:54.130Z,5.70
2022-08-19T17:31:23.610Z,8.90
2022-08-19T17:33:51.854Z,5.88
2022-08-19T17:36:23.452Z,7.20
2022-08-19T17:38:51.603Z,8.95
2022-08-19T17:41:18.783Z,12.93
2022-08-19T17:43:46.157Z,10.98
2022-08-19T17:46:20.241Z,12.68
2022-08-19T17:48:52.952Z,9.38
2022-08-19T17:51:43.132Z,16.17
2022-08-19T17:54:13.711Z,11.80
2022-08-19T17:56:41.641Z,18.58
2022-08-19T17:59:09.156Z,10.50
2022-08-19T18:01:52.107Z,11.27
2022-08-19T18:04:19.951Z,9.45
2022-08-19T18:06:53.558Z,15.15
2022-08-19T18:09:40.383Z,11.57
2022-08-19T18:12:15.528Z,13.32
2022-08-19T18:14:42.811Z,12.70
2022-08-19T18:17:13.098Z,10.27
2022-08-19T18:19:43.356Z,13.45
2022-08-19T18:22:23.923Z,16.08
2022-08-19T18:24:50.930Z,11.10
2022-08-19T18:27:18.257Z,13.98
2022-08-19T18:29:45.564Z,10.05
2022-08-19T18:32:13.711Z,10.63
2022-08-19T18:34:42.085Z,11.93
2022-08-19T18:37:09.361Z,9.85
2022-08-19T18:39:55.063Z,9.00
2022-08-19T18:42:40.741Z,8.48
2022-08-19T18:45:26.362Z,11.30
2022-08-19T18:48:27.840Z,7.40
2022-08-19T18:50:57.285Z,6.13
2022-08-19T18:53:24.848Z,6.13
2022-08-19T18:55:53.760Z,6.93
2022-08-19T18:58:34.048Z,6.72
2022-08-19T19:01:03.502Z,6.68
2022-08-19T19:03:30.287Z,16.73
2022-08-19T19:05:56.950Z,8.05
2022-08-19T19:08:27.459Z,6.43
2022-08-19T19:10:55.846Z,9.70
2022-08-19T19:13:23.339Z,9.00
2022-08-19T19:15:50.014Z,8.13
2022-08-19T19:18:16.660Z,15.15
2022-08-19T19:20:43.294Z,8.13
2022-08-19T19:23:10.299Z,5.80
2022-08-19T19:25:50.713Z,11.45
2022-08-19T19:28:25.794Z,4.45
2022-08-19T19:30:55.035Z,9.23
2022-08-19T19:33:21.853Z,12.38
2022-08-19T19:35:48.646Z,8.13
2022-08-19T19:38:15.451Z,8.02
2022-08-19T19:40:42.971Z,6.35
2022-08-19T19:43:09.658Z,4.70
2022-08-19T19:45:41.437Z,3.60
2022-08-19T19:48:09.842Z,4.50
2022-08-19T19:50:36.858Z,6.35
2022-08-19T19:53:03.859Z,6.07
2022-08-19T19:55:30.882Z,8.80
2022-08-19T19:57:57.730Z,4.32
2022-08-19T20:00:25.887Z,6.63
2022-08-19T20:02:55.759Z,7.65
2022-08-19T20:05:23.425Z,7.57
2022-08-19T20:08:10.739Z,7.70
2022-08-19T20:10:38.542Z,5.78
2022-08-19T20:13:06.959Z,7.07
2022-08-19T20:15:35.453Z,6.20
2022-08-19T20:18:05.233Z,6.78
2022-08-19T20:20:32.622Z,6.88
2022-08-19T20:22:59.357Z,6.88
2022-08-19T20:25:26.822Z,11.10
2022-08-19T20:27:53.558Z,11.85
2022-08-19T20:30:23.145Z,13.60
2022-08-19T20:32:50.692Z,16.02
2022-08-19T20:35:20.919Z,15.95
2022-08-19T20:37:47.989Z,15.63
2022-08-19T20:40:20.601Z,19.40
2022-08-19T20:42:50.401Z,15.00
2022-08-19T20:45:32.522Z,18.05
2022-08-19T20:48:02.577Z,13.55
2022-08-19T20:50:31.474Z,12.95
2022-08-19T20:52:58.618Z,15.38
2022-08-19T20:55:27.118Z,16.25
2022-08-19T20:57:54.266Z,11.80
2022-08-19T21:00:21.151Z,13.70
2022-08-19T21:02:47.880Z,16.23
2022-08-19T21:05:14.911Z,9.10
2022-08-19T21:07:41.704Z,13.20
2022-08-19T21:10:09.103Z,12.07
2022-08-19T21:12:35.863Z,13.52
2022-08-19T21:15:03.226Z,11.90
2022-08-19T21:17:29.863Z,16.08
2022-08-19T21:19:57.172Z,17.10
2022-08-19T21:22:23.812Z,16.20
2022-08-19T21:24:50.497Z,16.55
2022-08-19T21:27:17.347Z,17.17
2022-08-19T21:29:44.388Z,16.77
2022-08-19T21:32:14.104Z,18.98
2022-08-19T21:34:43.842Z,18.15
2022-08-19T21:37:17.580Z,21.63
2022-08-19T21:39:53.247Z,18.35
2022-08-19T21:42:20.236Z,20.60
2022-08-19T21:44:47.221Z,17.92
2022-08-19T21:47:13.917Z,20.13
2022-08-19T21:49:40.951Z,19.35
2022-08-19T21:52:08.590Z,18.73
2022-08-19T21:54:38.115Z,15.40
2022-08-19T21:57:07.045Z,16.35
2022-08-19T21:59:43.578Z,20.15
2022-08-19T22:02:20.284Z,19.48
2022-08-19T22:04:48.677Z,16.33
2022-08-19T22:07:15.840Z,15.77
2022-08-19T22:09:45.641Z,14.57
2022-08-19T22:12:26.661Z,16.42
2022-08-19T22:14:54.237Z,14.55
2022-08-19T22:17:23.150Z,14.88
2022-08-19T22:19:50.789Z,16.40
2022-08-19T22:22:24.364Z,17.65
2022-08-19T22:25:00.361Z,17.17
2022-08-19T22:27:28.046Z,18.42
2022-08-19T22:29:55.352Z,18.13
2022-08-19T22:32:28.135Z,17.88
2022-08-19T22:34:58.698Z,19.88
2022-08-19T22:37:27.507Z,19.23
2022-08-19T22:39:54.372Z,20.55
2022-08-19T22:42:22.087Z,18.35
2022-08-19T22:44:49.913Z,15.57
2022-08-19T22:47:17.055Z,13.52
2022-08-19T22:49:45.140Z,21.15
2022-08-19T22:52:17.232Z,22.15
2022-08-19T22:54:49.417Z,16.05
2022-08-19T22:57:28.695Z,15.02
2022-08-19T23:00:00.991Z,18.90
2022-08-19T23:02:32.105Z,21.02
2022-08-19T23:05:04.749Z,19.52
2022-08-19T23:09:58.836Z,16.63
2022-08-19T23:12:38.008Z,18.55
2022-08-19T23:15:12.700Z,20.77
2022-08-19T23:17:42.672Z,17.92
2022-08-19T23:20:14.230Z,18.00
2022-08-19T23:22:48.712Z,20.77
2022-08-19T23:25:19.157Z,25.75
2022-08-19T23:28:04.877Z,19.42
2022-08-19T23:30:34.453Z,21.63
2022-08-19T23:33:12.362Z,25.55
2022-08-19T23:35:40.872Z,22.80
2022-08-19T23:38:09.333Z,27.45
2022-08-19T23:40:38.378Z,25.25
2022-08-19T23:43:08.069Z,29.75
2022-08-19T23:45:40.337Z,22.48
2022-08-19T23:48:08.318Z,23.50
2022-08-19T23:50:36.149Z,21.15
2022-08-19T23:53:03.706Z,26.88
2022-08-19T23:55:35.350Z,28.48
2022-08-19T23:58:04.541Z,27.60
